Armada Township, Michigan
Current Conditions -  °F | °C
As of 6:55 PM on Sunday 23 Nov 2014 (Local Time) from KMTC Reporting Station
Overcast Overcast  
Wind Chill: 44°   Ceiling: 5000
Heat Index: 49°   Visibility: 7mi
Dew Point: 45°   Wind: 12mph
Humidity: 86%   Direction: 120°ESE
Pressure: 29.57"   Gusts: NA
Location:  42.8463°N, 82.9201°W
Report Text: KMTC 232355Z 12010KT 7SM SCT033 BKN050 OVC070 09/07 A2957 RMK PRESFR SLP025 T00930070 10093 20068 58046
Loading
Personal Weather Stations






























Interactive Weather Map New forecast layout! Learn more

10-Day Weather Forecast

Advertisements
Track Severe Weather on mobile